Malaga Aeropuerto en Andalucia

latitud = 36° 39' 58''N | longitud = 004° 28' 56''W
5 metros sobre el nivel del mar |

Fecha, hora, temperatura, viento dirección y velocidad, humedad y presión.

  • 21-01-2018 02:00:00 | 15.30°C | Oeste |36.00 km/h | 48.00% | 1026.80 hPa
  • 21-01-2018 01:00:00 | 15.50°C | Oeste |33.00 km/h | 50.00% | 1027.30 hPa
  • 21-01-2018 00:00:00 | 15.10°C | Oeste |22.00 km/h | 51.00% | 1027.80 hPa
  • 20-01-2018 23:00:00 | 15.00°C | Oeste |24.00 km/h | 50.00% | 1027.50 hPa
  • 20-01-2018 22:00:00 | 14.80°C | Oeste |27.00 km/h | 52.00% | 1027.40 hPa
  • 20-01-2018 21:00:00 | 15.00°C | Oeste |14.00 km/h | 51.00% | 1027.40 hPa
  • 20-01-2018 20:00:00 | 17.40°C | Noroeste |25.00 km/h | 40.00% | 1027.10 hPa
  • 20-01-2018 19:00:00 | 17.90°C | Noroeste |19.00 km/h | 42.00% | 1026.60 hPa
  • 20-01-2018 18:00:00 | 18.70°C | Noroeste |20.00 km/h | 44.00% | 1026.00 hPa
  • 20-01-2018 17:00:00 | 19.80°C | Noroeste |26.00 km/h | 46.00% | 1025.60 hPa
  • 20-01-2018 16:00:00 | 20.00°C | Oeste |32.00 km/h | 41.00% | 1025.30 hPa
  • 20-01-2018 15:00:00 | 20.40°C | Oeste |37.00 km/h | 41.00% | 1025.10 hPa
  • 20-01-2018 14:00:00 | 19.70°C | Oeste |31.00 km/h | 45.00% | 1025.40 hPa
  • 20-01-2018 13:00:00 | 18.40°C | Oeste |31.00 km/h | 48.00% | 1026.40 hPa
  • 20-01-2018 12:00:00 | 17.30°C | Oeste |30.00 km/h | 51.00% | 1027.40 hPa
  • 20-01-2018 11:00:00 | 16.10°C | Oeste |31.00 km/h | 55.00% | 1027.00 hPa
  • 20-01-2018 10:00:00 | 14.70°C | Oeste |29.00 km/h | 58.00% | 1026.30 hPa
  • 20-01-2018 09:00:00 | 13.70°C | Oeste |26.00 km/h | 60.00% | 1025.60 hPa
  • 20-01-2018 08:00:00 | 11.90°C | Noroeste |18.00 km/h | 68.00% | 1025.20 hPa
  • 20-01-2018 07:00:00 | 13.50°C | Oeste |20.00 km/h | 62.00% | 1024.30 hPa
  • 20-01-2018 06:00:00 | 13.50°C | Oeste |25.00 km/h | 62.00% | 1023.70 hPa
  • 20-01-2018 05:00:00 | 12.50°C | Oeste |20.00 km/h | 66.00% | 1024.10 hPa
  • 20-01-2018 04:00:00 | 13.70°C | Oeste |26.00 km/h | 61.00% | 1023.90 hPa
  • 20-01-2018 03:00:00 | 13.40°C | Oeste |22.00 km/h | 62.00% | 1023.60 hPa
    • Datos gráficos mensuales de Malaga Aeropuerto: